地図

経路データ

SID SEASON NUMBER BASIN SUBBASIN NAME ISO_TIME NATURE LAT LON WMO_WIND WMO_PRES WMO_AGENCY TRACK_TYPE DIST2LAND LANDFALL IFLAG USA_AGENCY USA_ATCF_ID USA_LAT USA_LON USA_RECORD USA_STATUS USA_WIND USA_PRES USA_SSHS USA_R34_NE USA_R34_SE USA_R34_SW USA_R34_NW USA_R50_NE USA_R50_SE USA_R50_SW USA_R50_NW USA_R64_NE USA_R64_SE USA_R64_SW USA_R64_NW USA_POCI USA_ROCI USA_RMW USA_EYE TOKYO_LAT TOKYO_LON TOKYO_GRADE TOKYO_WIND TOKYO_PRES TOKYO_R50_DIR TOKYO_R50_LONG TOKYO_R50_SHORT TOKYO_R30_DIR TOKYO_R30_LONG TOKYO_R30_SHORT TOKYO_LAND CMA_LAT CMA_LON CMA_CAT CMA_WIND CMA_PRES HKO_LAT HKO_LON HKO_CAT HKO_WIND HKO_PRES NEWDELHI_LAT NEWDELHI_LON NEWDELHI_GRADE NEWDELHI_WIND NEWDELHI_PRES NEWDELHI_CI NEWDELHI_DP NEWDELHI_POCI REUNION_LAT REUNION_LON REUNION_TYPE REUNION_WIND REUNION_PRES REUNION_TNUM REUNION_CI REUNION_RMW REUNION_R34_NE REUNION_R34_SE REUNION_R34_SW REUNION_R34_NW REUNION_R50_NE REUNION_R50_SE REUNION_R50_SW REUNION_R50_NW REUNION_R64_NE REUNION_R64_SE REUNION_R64_SW REUNION_R64_NW BOM_LAT BOM_LON BOM_TYPE BOM_WIND BOM_PRES BOM_TNUM BOM_CI BOM_RMW BOM_R34_NE BOM_R34_SE BOM_R34_SW BOM_R34_NW BOM_R50_NE BOM_R50_SE BOM_R50_SW BOM_R50_NW BOM_R64_NE BOM_R64_SE BOM_R64_SW BOM_R64_NW BOM_ROCI BOM_POCI BOM_EYE BOM_POS_METHOD BOM_PRES_METHOD NADI_LAT NADI_LON NADI_CAT NADI_WIND NADI_PRES WELLINGTON_LAT WELLINGTON_LON WELLINGTON_WIND WELLINGTON_PRES DS824_LAT DS824_LON DS824_STAGE DS824_WIND DS824_PRES TD9636_LAT TD9636_LON TD9636_STAGE TD9636_WIND TD9636_PRES TD9635_LAT TD9635_LON TD9635_WIND TD9635_PRES TD9635_ROCI NEUMANN_LAT NEUMANN_LON NEUMANN_CLASS NEUMANN_WIND NEUMANN_PRES MLC_LAT MLC_LON MLC_CLASS MLC_WIND MLC_PRES USA_GUST BOM_GUST BOM_GUST_PER REUNION_GUST REUNION_GUST_PER USA_SEAHGT USA_SEARAD_NE USA_SEARAD_SE USA_SEARAD_SW USA_SEARAD_NW STORM_SPEED STORM_DIR
1934305S09070 1935 73 SI MM NOT_NAMED 1934-10-31 18:00:00 NR -9.20000 69.5000 spur-split 1759 1728 __________O___ -1 -9.20000 69.5000 7 6 237
1934305S09070 1935 73 SI MM NOT_NAMED 1934-10-31 21:00:00 NR -9.36404 69.2407 spur-split 1720 1696 __________P___ -1 -9.36404 69.2407 7 6 238
1934305S09070 1935 73 SI MM NOT_NAMED 1934-11-01 00:00:00 NR -9.53241 68.9650 spur-split 1696 1657 __________P___ -1 -9.53241 68.9650 7 7 239
1934305S09070 1935 73 SI MM NOT_NAMED 1934-11-01 03:00:00 NR -9.70959 68.6569 spur-split 1657 1611 __________P___ -1 -9.70959 68.6569 7 8 241
1934305S09070 1935 73 SI MM NOT_NAMED 1934-11-01 06:00:00 NR -9.90000 68.3000 spur-split 1611 1564 __________O___ -1 -9.90000 68.3000 7 9 242
1934305S09070 1935 73 SI MM NOT_NAMED 1934-11-01 09:00:00 NR -10.1067 67.8850 spur-split 1564 1518 __________P___ -1 -10.1067 67.8850 7 10 243
1934305S09070 1935 73 SI MM NOT_NAMED 1934-11-01 12:00:00 NR -10.3277 67.4300 spur-split 1511 1465 __________P___ -1 -10.3277 67.4300 7 10 244
1934305S09070 1935 73 SI MM NOT_NAMED 1934-11-01 15:00:00 NR -10.5598 66.9599 spur-split 1457 1404 __________P___ -1 -10.5598 66.9599 7 10 243
1934305S09070 1935 73 SI MM NOT_NAMED 1934-11-01 18:00:00 NR -10.8000 66.5000 spur-split 1404 1358 __________O___ -1 -10.8000 66.5000 7 10 240
1934305S09070 1935 73 SI MM NOT_NAMED 1934-11-01 21:00:00 NR -11.0507 66.0815 spur-split 1350 1304 __________P___ -1 -11.0507 66.0815 7 10 238
1934305S09070 1935 73 SI MM NOT_NAMED 1934-11-02 00:00:00 NR -11.3072 65.6774 spur-split 1304 1259 __________P___ -1 -11.3072 65.6774 7 9 237
1934305S09070 1935 73 SI MM NOT_NAMED 1934-11-02 03:00:00 NR -11.5601 65.2846 spur-split 1250 1206 __________P___ -1 -11.5601 65.2846 7 9 237
1934305S09070 1935 73 SI MM NOT_NAMED 1934-11-02 06:00:00 NR -11.8000 64.9000 spur-split 1206 1161 __________O___ -1 -11.8000 64.9000 7 9 239
1934305S09070 1935 73 SI MM NOT_NAMED 1934-11-02 09:00:00 NR -12.0101 64.5135 spur-split 1161 1123 __________P___ -1 -12.0101 64.5135 7 9 241
1934305S09070 1935 73 SI MM NOT_NAMED 1934-11-02 12:00:00 NR -12.2073 64.1346 spur-split 1117 1079 __________P___ -1 -12.2073 64.1346 7 8 242
1934305S09070 1935 73 SI MM NOT_NAMED 1934-11-02 15:00:00 NR -12.4008 63.7635 spur-split 1079 1036 __________P___ -1 -12.4008 63.7635 7 8 241
1934305S09070 1935 73 SI MM NOT_NAMED 1934-11-02 18:00:00 NR -12.6000 63.4000 spur-split 1036 999 __________O___ -1 -12.6000 63.4000 7 8 240
1934305S09070 1935 73 SI MM NOT_NAMED 1934-11-02 21:00:00 NR -12.8054 63.0425 spur-split 993 956 __________P___ -1 -12.8054 63.0425 7 8 239
1934305S09070 1935 73 SI MM NOT_NAMED 1934-11-03 00:00:00 NR -13.0198 62.6921 spur-split 956 920 __________P___ -1 -13.0198 62.6921 7 8 237
1934305S09070 1935 73 SI MM NOT_NAMED 1934-11-03 03:00:00 NR -13.2492 62.3456 spur-split 914 868 __________P___ -1 -13.2492 62.3456 7 8 235
1934305S09070 1935 73 SI MM NOT_NAMED 1934-11-03 06:00:00 NR -13.5000 62.0000 spur-split 868 827 __________O___ -1 -13.5000 62.0000 7 9 234
1934305S09070 1935 73 SI MM NOT_NAMED 1934-11-03 09:00:00 NR -13.7501 61.6255 spur-split 817 782 __________P___ -1 -13.7501 61.6255 7 9 234
1934305S09070 1935 73 SI MM NOT_NAMED 1934-11-03 12:00:00 NR -14.0252 61.2548 spur-split 782 732 __________P___ -1 -14.0252 61.2548 7 9 230
1934305S09070 1935 73 SI MM NOT_NAMED 1934-11-03 15:00:00 NR -14.3376 60.9067 spur-split 732 678 __________P___ -1 -14.3376 60.9067 7 9 223
1934305S09070 1935 73 SI MM NOT_NAMED 1934-11-03 18:00:00 NR -14.7000 60.6000 spur-split 678 623 __________O___ -1 -14.7000 60.6000 7 10 214
1934305S09070 1935 73 SI MM NOT_NAMED 1934-11-03 21:00:00 NR -15.1651 60.3287 spur-split 613 563 __________P___ -1 -15.1651 60.3287 7 11 206
1934305S09070 1935 73 SI MM NOT_NAMED 1934-11-04 00:00:00 NR -15.6723 60.1030 spur-split 553 504 __________P___ -1 -15.6723 60.1030 7 11 201
1934305S09070 1935 73 SI MM NOT_NAMED 1934-11-04 03:00:00 NR -16.1683 59.9256 spur-split 494 449 __________P___ -1 -16.1683 59.9256 7 10 197
1934305S09070 1935 73 SI MM NOT_NAMED 1934-11-04 06:00:00 NR -16.6000 59.8000 spur-split 449 415 __________O___ -1 -16.6000 59.8000 7 8 195
1934305S09070 1935 73 SI MM NOT_NAMED 1934-11-04 09:00:00 NR -16.9008 59.7160 spur-split 415 396 __________P___ -1 -16.9008 59.7160 7 5 192
1934305S09070 1935 73 SI MM NOT_NAMED 1934-11-04 12:00:00 NR -17.1323 59.6819 spur-split 396 377 __________P___ -1 -17.1323 59.6819 7 4 186
1934305S09070 1935 73 SI MM NOT_NAMED 1934-11-04 15:00:00 NR -17.3227 59.6818 spur-split 377 359 __________P___ -1 -17.3227 59.6818 7 4 0
1934305S09070 1935 73 SI MM NOT_NAMED 1934-11-04 18:00:00 NR -17.5000 59.7000 spur-split 359 350 __________O___ -1 -17.5000 59.7000 7 3 0
1934305S09070 1935 73 SI MM NOT_NAMED 1934-11-04 21:00:00 NR -17.6544 59.6906 spur-split 341 332 __________P___ -1 -17.6544 59.6906 7 3 0
1934305S09070 1935 73 SI MM NOT_NAMED 1934-11-05 00:00:00 NR -17.8100 59.6981 spur-split 332 315 __________P___ -1 -17.8100 59.6981 7 4 174
1934305S09070 1935 73 SI MM NOT_NAMED 1934-11-05 03:00:00 NR -18.0106 59.7315 spur-split 315 298 __________P___ -1 -18.0106 59.7315 7 5 169
1934305S09070 1935 73 SI MM NOT_NAMED 1934-11-05 06:00:00 NR -18.3000 59.8000 spur-split 298 278 __________O___ -1 -18.3000 59.8000 7 8 168
1934305S09070 1935 73 SI MM NOT_NAMED 1934-11-05 09:00:00 NR -18.7681 59.9055 spur-split 272 255 __________P___ -1 -18.7681 59.9055 7 11 167
1934305S09070 1935 73 SI MM NOT_NAMED 1934-11-05 12:00:00 NR -19.3200 60.0468 spur-split 255 249 __________P___ -1 -19.3200 60.0468 7 12 165
1934305S09070 1935 73 SI MM NOT_NAMED 1934-11-05 15:00:00 NR -19.8869 60.2149 spur-split 254 252 __________P___ -1 -19.8869 60.2149 7 11 163
1934305S09070 1935 73 SI MM NOT_NAMED 1934-11-05 18:00:00 NR -20.4000 60.4000 spur-split 271 271 __________O___ -1 -20.4000 60.4000 7 10 159
1934305S09070 1935 73 SI MM NOT_NAMED 1934-11-05 21:00:00 NR -20.8072 60.5937 spur-split 296 296 __________P___ -1 -20.8072 60.5937 7 8 153
1934305S09070 1935 73 SI MM NOT_NAMED 1934-11-06 00:00:00 NR -21.1226 60.7926 spur-split 324 324 __________P___ -1 -21.1226 60.7926 7 7 147
1934305S09070 1935 73 SI MM NOT_NAMED 1934-11-06 03:00:00 NR -21.3767 60.9953 spur-split 354 354 __________P___ -1 -21.3767 60.9953 7 6 141
1934305S09070 1935 73 SI MM NOT_NAMED 1934-11-06 06:00:00 NR -21.6000 61.2000 spur-split 381 __________O___ -1 -21.6000 61.2000 7 6 140

IBTrACS Databaseについて

本データベースは、米国NOAAが公開する1842年以降の世界の熱帯低気圧のベストトラックデータアーカイブInternational Best Track Archive for Climate Stewardship (IBTrACS)を、ウェブで閲覧しやすい形式に変換したものです。

最終更新日:2021-12-03